Terminal Aerodrome Forecast
Issued by NWS Shreveport, LA

Home | Current Version | Previous Version | Text Only | Print | Product List | Glossary On
Versions: 1 2 3 4 5 6 7 8 9 10 11 12 13
000
FTUS44 KSHV 012300
TAFELD
TAF
KELD 012320Z 0200/0224 14009KT P6SM FEW070
     FM021000 18003KT 5SM BR BKN020
      TEMPO 0211/0214 2SM BR OVC012
     FM021500 18007KT P6SM BKN030
     FM022000 19012G18KT P6SM VCSH BKN035=

USA.gov is the U.S. government's official web portal to all federal, state and local government web resources and services.